createdAt,value
2022-08-20T00:02:16.898Z,21.60
2022-08-20T00:04:45.560Z,21.60
2022-08-20T00:07:16.419Z,21.50
2022-08-20T00:09:45.520Z,21.50
2022-08-20T00:12:17.621Z,21.50
2022-08-20T00:14:47.482Z,21.50
2022-08-20T00:17:16.499Z,21.50
2022-08-20T00:19:44.874Z,21.50
2022-08-20T00:22:13.654Z,21.40
2022-08-20T00:24:42.091Z,21.40
2022-08-20T00:27:11.329Z,21.40
2022-08-20T00:29:39.687Z,21.40
2022-08-20T00:32:09.551Z,21.30
2022-08-20T00:34:38.024Z,21.30
2022-08-20T00:37:07.005Z,21.30
2022-08-20T00:39:35.775Z,21.30
2022-08-20T00:42:04.929Z,21.30
2022-08-20T00:44:33.649Z,21.30
2022-08-20T00:47:02.370Z,21.30
2022-08-20T00:49:34.257Z,21.30
2022-08-20T00:52:09.164Z,21.30
2022-08-20T00:54:43.069Z,21.30
2022-08-20T00:57:19.390Z,21.20
2022-08-20T00:59:50.713Z,21.10
2022-08-20T01:02:22.558Z,21.10
2022-08-20T01:04:54.645Z,21.00
2022-08-20T01:07:32.501Z,21.00
2022-08-20T01:10:01.840Z,21.00
2022-08-20T01:12:31.386Z,21.00
2022-08-20T01:15:03.783Z,21.20
2022-08-20T01:17:37.084Z,21.10
2022-08-20T01:20:12.535Z,21.10
2022-08-20T01:23:04.095Z,21.10
2022-08-20T01:25:43.365Z,21.00
2022-08-20T01:28:12.920Z,21.00
2022-08-20T01:30:41.508Z,21.00
2022-08-20T01:33:10.662Z,21.00
2022-08-20T01:35:42.603Z,21.00
2022-08-20T01:38:13.718Z,20.90
2022-08-20T01:41:37.537Z,21.00
2022-08-20T01:44:06.120Z,20.90
2022-08-20T01:46:43.961Z,20.90
2022-08-20T01:49:22.914Z,21.00
2022-08-20T01:51:53.807Z,20.90
2022-08-20T01:54:22.798Z,20.90
2022-08-20T01:57:01.574Z,20.90
2022-08-20T01:59:31.088Z,20.90
2022-08-20T02:02:00.338Z,20.90
2022-08-20T02:04:28.808Z,20.90
2022-08-20T02:07:01.322Z,20.90
2022-08-20T02:09:33.756Z,20.80
2022-08-20T02:12:06.884Z,20.70
2022-08-20T02:14:37.011Z,20.80
2022-08-20T02:17:07.218Z,20.70
2022-08-20T02:19:40.039Z,20.70
2022-08-20T02:22:19.367Z,20.70
2022-08-20T02:24:48.293Z,20.80
2022-08-20T02:27:18.797Z,20.70
2022-08-20T02:29:47.414Z,20.60
2022-08-20T02:32:24.546Z,20.60
2022-08-20T02:35:03.829Z,20.70
2022-08-20T02:37:32.681Z,20.70
2022-08-20T02:40:01.059Z,20.70
2022-08-20T02:42:30.845Z,20.70
2022-08-20T02:44:59.337Z,20.60
2022-08-20T02:47:28.780Z,20.60
2022-08-20T02:49:59.373Z,20.60
2022-08-20T02:52:27.789Z,20.60
2022-08-20T02:54:56.044Z,20.70
2022-08-20T02:57:24.462Z,20.70
2022-08-20T02:59:54.138Z,20.70
2022-08-20T03:02:22.456Z,20.70
2022-08-20T03:04:50.784Z,20.60
2022-08-20T03:07:19.320Z,20.70
2022-08-20T03:09:47.704Z,20.80
2022-08-20T03:12:16.441Z,20.80
2022-08-20T03:14:44.816Z,20.80
2022-08-20T03:17:14.595Z,20.80
2022-08-20T03:19:42.863Z,20.80
2022-08-20T03:22:11.147Z,20.80
2022-08-20T03:24:39.445Z,20.70
2022-08-20T03:27:07.834Z,20.80
2022-08-20T03:29:36.936Z,20.70
2022-08-20T03:32:07.800Z,20.70
2022-08-20T03:34:37.649Z,20.70
2022-08-20T03:37:06.231Z,20.60
2022-08-20T03:39:34.877Z,20.50
2022-08-20T03:42:03.647Z,20.50
2022-08-20T03:44:32.182Z,20.40
2022-08-20T03:47:00.568Z,20.50
2022-08-20T03:49:29.226Z,20.30
2022-08-20T03:51:59.086Z,20.40
2022-08-20T03:54:31.954Z,20.40
2022-08-20T03:57:02.331Z,20.40
2022-08-20T03:59:33.063Z,20.40
2022-08-20T04:02:01.930Z,20.40
2022-08-20T04:04:30.484Z,20.40
2022-08-20T04:07:00.393Z,20.40
2022-08-20T04:09:30.081Z,20.40
2022-08-20T04:12:00.982Z,20.40
2022-08-20T04:14:29.444Z,20.30
2022-08-20T04:16:58.823Z,20.20
2022-08-20T04:19:31.216Z,20.20
2022-08-20T04:22:03.852Z,20.30
2022-08-20T04:24:32.888Z,20.00
2022-08-20T04:27:04.364Z,19.90
2022-08-20T04:29:35.503Z,19.80
2022-08-20T04:32:06.016Z,19.70
2022-08-20T04:34:35.855Z,19.70
2022-08-20T04:37:17.200Z,19.60
2022-08-20T04:40:06.963Z,19.50
2022-08-20T04:42:39.222Z,19.40
2022-08-20T04:45:09.765Z,19.40
2022-08-20T04:47:38.070Z,19.30
2022-08-20T04:50:10.524Z,19.30
2022-08-20T04:52:40.894Z,19.20
2022-08-20T04:55:11.537Z,19.20
2022-08-20T04:57:41.133Z,19.10
2022-08-20T05:00:14.384Z,19.10
2022-08-20T05:02:43.192Z,19.00
2022-08-20T05:05:13.484Z,19.00
2022-08-20T05:07:46.835Z,19.00
2022-08-20T05:10:18.528Z,18.90
2022-08-20T05:12:56.667Z,18.80
2022-08-20T05:15:26.348Z,18.80
2022-08-20T05:18:00.627Z,18.70
2022-08-20T05:20:32.206Z,18.70
2022-08-20T05:23:03.654Z,18.60
2022-08-20T05:25:33.026Z,18.60
2022-08-20T05:28:03.455Z,18.60
2022-08-20T05:30:34.233Z,18.60
2022-08-20T05:33:04.857Z,18.60
2022-08-20T05:35:38.565Z,18.60
2022-08-20T05:38:14.005Z,18.60
2022-08-20T05:40:43.866Z,18.60
2022-08-20T05:43:13.438Z,18.60
2022-08-20T05:45:44.972Z,18.60
2022-08-20T05:48:16.030Z,18.60
2022-08-20T05:50:49.183Z,18.60
2022-08-20T05:53:20.322Z,18.70
2022-08-20T05:55:49.448Z,18.60
2022-08-20T05:58:21.036Z,18.60
2022-08-20T06:00:51.777Z,18.70
2022-08-20T06:03:37.951Z,18.80
2022-08-20T06:06:17.841Z,18.80
2022-08-20T06:08:48.270Z,18.70
2022-08-20T06:11:16.691Z,18.80
2022-08-20T06:13:44.960Z,18.80
2022-08-20T06:16:13.309Z,18.80
2022-08-20T06:18:41.824Z,18.80
2022-08-20T06:21:11.074Z,18.90
2022-08-20T06:23:54.388Z,18.90
2022-08-20T06:26:30.009Z,18.90
2022-08-20T06:29:00.398Z,18.90
2022-08-20T06:31:29.138Z,19.00
2022-08-20T06:33:57.965Z,19.00
2022-08-20T06:36:27.411Z,19.00
2022-08-20T06:38:58.438Z,19.00
2022-08-20T06:41:35.853Z,19.10
2022-08-20T06:44:05.573Z,19.10
2022-08-20T06:46:34.222Z,19.20
2022-08-20T06:49:03.517Z,19.20
2022-08-20T06:51:31.920Z,19.30
2022-08-20T06:54:00.418Z,19.20
2022-08-20T06:56:30.602Z,19.30
2022-08-20T06:58:59.022Z,19.30
2022-08-20T07:01:27.450Z,19.00
2022-08-20T07:03:59.562Z,19.40
2022-08-20T07:06:28.285Z,19.30
2022-08-20T07:08:57.095Z,19.40
2022-08-20T07:11:28.220Z,19.50
2022-08-20T07:13:59.421Z,19.50
2022-08-20T07:16:28.388Z,19.60
2022-08-20T07:18:58.261Z,19.70
2022-08-20T07:21:26.756Z,19.70
2022-08-20T07:23:55.122Z,19.70
2022-08-20T07:26:24.000Z,19.80
2022-08-20T07:28:52.382Z,19.80
2022-08-20T07:31:39.694Z,19.80
2022-08-20T07:34:11.675Z,19.80
2022-08-20T07:36:40.409Z,19.90
2022-08-20T07:39:11.839Z,20.00
2022-08-20T07:41:40.167Z,20.00
2022-08-20T07:44:09.121Z,20.00
2022-08-20T07:46:38.989Z,20.00
2022-08-20T07:49:09.638Z,20.10
2022-08-20T07:51:38.009Z,20.20
2022-08-20T07:54:07.113Z,20.20
2022-08-20T07:56:35.545Z,20.30
2022-08-20T07:59:05.244Z,20.40
2022-08-20T08:01:34.297Z,20.40
2022-08-20T08:04:04.533Z,20.40
2022-08-20T08:06:33.643Z,20.50
2022-08-20T08:09:07.218Z,20.50
2022-08-20T08:11:39.166Z,20.60
2022-08-20T08:14:11.391Z,20.80
2022-08-20T08:16:40.159Z,21.10
2022-08-20T08:19:14.351Z,21.70
2022-08-20T08:21:44.670Z,22.10
2022-08-20T08:24:17.965Z,22.70
2022-08-20T08:26:50.038Z,23.30
2022-08-20T08:29:18.640Z,23.90
2022-08-20T08:31:47.054Z,24.20
2022-08-20T08:34:16.889Z,24.40
2022-08-20T08:36:45.470Z,24.80
2022-08-20T08:39:13.810Z,24.80
2022-08-20T08:41:49.778Z,25.00
2022-08-20T08:44:23.364Z,25.30
2022-08-20T08:46:56.701Z,25.50
2022-08-20T08:49:37.734Z,25.70
2022-08-20T08:52:14.688Z,25.90
2022-08-20T08:54:47.728Z,26.10
2022-08-20T08:57:16.669Z,26.10
2022-08-20T08:59:58.275Z,26.10
2022-08-20T09:02:36.516Z,26.10
2022-08-20T09:05:17.808Z,26.30
2022-08-20T09:07:53.112Z,26.20
2022-08-20T09:10:23.081Z,26.20
2022-08-20T09:12:52.314Z,26.00
2022-08-20T09:15:22.203Z,26.00
2022-08-20T09:17:51.891Z,26.00
2022-08-20T09:20:26.887Z,26.00
2022-08-20T09:22:55.950Z,26.20
2022-08-20T09:25:25.513Z,26.20
2022-08-20T09:27:53.914Z,26.10
2022-08-20T09:30:23.168Z,26.00
2022-08-20T09:32:51.909Z,26.10
2022-08-20T09:35:21.787Z,26.20
2022-08-20T09:37:50.976Z,26.40
2022-08-20T09:40:21.338Z,26.40
2022-08-20T09:42:50.869Z,26.60
2022-08-20T09:45:20.315Z,26.80
2022-08-20T09:47:56.559Z,26.90
2022-08-20T09:50:27.912Z,27.00
2022-08-20T09:52:58.801Z,26.90
2022-08-20T09:55:34.609Z,26.90
2022-08-20T09:58:07.336Z,26.90
2022-08-20T10:00:36.095Z,27.00
2022-08-20T10:03:04.419Z,27.10
2022-08-20T10:05:34.174Z,27.10
2022-08-20T10:08:06.354Z,27.30
2022-08-20T10:10:34.687Z,27.30
2022-08-20T10:13:03.565Z,27.30
2022-08-20T10:15:32.858Z,27.10
2022-08-20T10:18:07.572Z,27.00
2022-08-20T10:20:37.426Z,27.10
2022-08-20T10:23:06.538Z,27.10
2022-08-20T10:25:35.065Z,27.10
2022-08-20T10:28:03.829Z,27.00
2022-08-20T10:30:32.133Z,27.00
2022-08-20T10:33:00.665Z,27.20
2022-08-20T10:35:29.309Z,27.50
2022-08-20T10:37:59.216Z,27.60
2022-08-20T10:40:28.003Z,27.70
2022-08-20T10:42:56.349Z,27.50
2022-08-20T10:45:25.852Z,27.40
2022-08-20T10:47:54.131Z,27.50
2022-08-20T10:50:22.716Z,27.70
2022-08-20T10:52:51.074Z,27.80
2022-08-20T10:55:21.076Z,27.50
2022-08-20T10:57:49.722Z,27.40
2022-08-20T11:00:20.227Z,27.10
2022-08-20T11:02:48.705Z,27.00
2022-08-20T11:05:17.093Z,27.00
2022-08-20T11:07:50.723Z,26.90
2022-08-20T11:10:27.737Z,27.00
2022-08-20T11:12:56.593Z,27.10
2022-08-20T11:15:25.119Z,27.00
2022-08-20T11:17:54.209Z,26.90
2022-08-20T11:20:25.577Z,26.90
2022-08-20T11:22:54.317Z,26.90
2022-08-20T11:25:22.945Z,26.70
2022-08-20T11:27:54.363Z,26.60
2022-08-20T11:30:27.140Z,26.80
2022-08-20T11:32:55.743Z,27.10
2022-08-20T11:35:42.295Z,27.30
2022-08-20T11:38:13.534Z,27.40
2022-08-20T11:40:41.942Z,27.70
2022-08-20T11:43:16.250Z,27.90
2022-08-20T11:45:47.373Z,28.00
2022-08-20T11:48:15.848Z,28.20
2022-08-20T11:50:44.874Z,28.20
2022-08-20T11:53:13.619Z,28.10
2022-08-20T11:55:43.901Z,28.20
2022-08-20T11:58:13.721Z,28.00
2022-08-20T12:00:42.567Z,27.80
2022-08-20T12:03:12.236Z,27.60
2022-08-20T12:05:45.044Z,27.50
2022-08-20T12:08:26.487Z,27.20
2022-08-20T12:10:58.758Z,27.10
2022-08-20T12:13:47.187Z,27.00
2022-08-20T12:16:17.781Z,26.90
2022-08-20T12:18:46.838Z,26.70
2022-08-20T12:21:15.671Z,26.60
2022-08-20T12:23:44.732Z,26.50
2022-08-20T12:26:13.374Z,26.60
2022-08-20T12:28:43.636Z,27.00
2022-08-20T12:31:12.159Z,27.30
2022-08-20T12:33:40.656Z,27.50
2022-08-20T12:36:10.940Z,27.80
2022-08-20T12:38:39.325Z,27.90
2022-08-20T12:41:07.820Z,27.90
2022-08-20T12:43:36.486Z,27.70
2022-08-20T12:46:06.517Z,27.60
2022-08-20T12:48:34.855Z,27.40
2022-08-20T12:51:03.572Z,27.40
2022-08-20T12:53:31.869Z,27.30
2022-08-20T12:56:02.463Z,27.10
2022-08-20T12:58:30.771Z,27.00
2022-08-20T13:00:59.112Z,26.80
2022-08-20T13:03:28.987Z,26.70
2022-08-20T13:06:03.020Z,26.70
2022-08-20T13:08:31.503Z,26.70
2022-08-20T13:10:59.911Z,26.70
2022-08-20T13:13:28.373Z,26.90
2022-08-20T13:15:56.653Z,26.80
2022-08-20T13:18:25.063Z,27.00
2022-08-20T13:20:54.815Z,27.00
2022-08-20T13:23:23.281Z,27.20
2022-08-20T13:25:51.652Z,27.20
2022-08-20T13:28:19.993Z,27.10
2022-08-20T13:30:48.473Z,27.00
2022-08-20T13:33:17.129Z,26.70
2022-08-20T13:35:46.433Z,26.50
2022-08-20T13:38:16.102Z,26.40
2022-08-20T13:40:44.710Z,26.30
2022-08-20T13:43:17.399Z,26.30
2022-08-20T13:45:46.103Z,26.20
2022-08-20T13:48:15.122Z,26.30
2022-08-20T13:50:47.361Z,26.40
2022-08-20T13:53:17.637Z,26.30
2022-08-20T13:55:47.138Z,26.30
2022-08-20T13:58:15.728Z,26.20
2022-08-20T14:00:46.886Z,26.20
2022-08-20T14:03:19.987Z,26.60
2022-08-20T14:05:53.855Z,26.70
2022-08-20T14:08:25.336Z,26.70
2022-08-20T14:10:54.028Z,26.80
2022-08-20T14:13:24.860Z,26.70
2022-08-20T14:15:53.693Z,26.70
2022-08-20T14:18:22.149Z,26.40
2022-08-20T14:20:50.583Z,26.10
2022-08-20T14:23:19.014Z,25.90
2022-08-20T14:25:50.489Z,25.60
2022-08-20T14:28:21.721Z,25.70
2022-08-20T14:30:53.532Z,25.90
2022-08-20T14:33:23.611Z,25.70
2022-08-20T14:35:52.459Z,25.70
2022-08-20T14:38:20.739Z,25.80
2022-08-20T14:40:50.844Z,25.80
2022-08-20T14:43:19.609Z,25.70
2022-08-20T14:45:48.175Z,25.60
2022-08-20T14:48:16.635Z,25.70
2022-08-20T14:50:44.988Z,25.90
2022-08-20T14:53:13.416Z,25.70
2022-08-20T14:55:42.060Z,25.50
2022-08-20T14:58:14.149Z,25.40
2022-08-20T15:00:43.924Z,25.30
2022-08-20T15:03:13.551Z,25.40
2022-08-20T15:05:42.100Z,25.40
2022-08-20T15:08:12.626Z,25.40
2022-08-20T15:10:42.041Z,25.60
2022-08-20T15:13:12.002Z,25.70
2022-08-20T15:15:40.692Z,25.80
2022-08-20T15:18:09.408Z,26.20
2022-08-20T15:20:38.710Z,26.00
2022-08-20T15:23:07.281Z,25.70
2022-08-20T15:25:38.134Z,25.70
2022-08-20T15:28:09.383Z,25.60
2022-08-20T15:30:41.664Z,25.60
2022-08-20T15:33:12.265Z,25.60
2022-08-20T15:35:40.654Z,25.70
2022-08-20T15:38:09.346Z,26.00
2022-08-20T15:40:38.612Z,26.20
2022-08-20T15:43:07.334Z,26.10
2022-08-20T15:45:37.964Z,25.90
2022-08-20T15:48:13.556Z,25.70
2022-08-20T15:51:22.582Z,25.70
2022-08-20T15:54:02.958Z,25.70
2022-08-20T15:56:55.323Z,25.70
2022-08-20T15:59:46.416Z,25.70
2022-08-20T16:02:40.188Z,25.60
2022-08-20T16:05:20.540Z,25.50
2022-08-20T16:08:03.204Z,25.40
2022-08-20T16:10:43.806Z,25.50
2022-08-20T16:13:35.701Z,25.30
2022-08-20T16:16:05.127Z,25.00
2022-08-20T16:18:38.797Z,25.00
2022-08-20T16:21:13.240Z,25.20
2022-08-20T16:23:43.810Z,25.30
2022-08-20T16:26:35.775Z,25.50
2022-08-20T16:29:11.682Z,25.50
2022-08-20T16:31:49.923Z,25.20
2022-08-20T16:34:34.334Z,25.10
2022-08-20T16:37:12.384Z,25.00
2022-08-20T16:39:49.729Z,25.20
2022-08-20T16:42:25.792Z,25.30
2022-08-20T16:44:56.463Z,25.40
2022-08-20T16:47:30.500Z,25.20
2022-08-20T16:50:05.856Z,25.20
2022-08-20T16:52:34.531Z,25.30
2022-08-20T16:55:02.990Z,25.10
2022-08-20T16:57:31.399Z,25.10
2022-08-20T17:00:11.974Z,25.30
2022-08-20T17:02:52.210Z,25.20
2022-08-20T17:05:22.769Z,25.10
2022-08-20T17:07:54.622Z,25.00
2022-08-20T17:10:29.543Z,25.00
2022-08-20T17:13:04.315Z,25.00
2022-08-20T17:15:35.778Z,24.80
2022-08-20T17:18:21.967Z,24.80
2022-08-20T17:20:52.745Z,24.60
2022-08-20T17:23:22.762Z,24.40
2022-08-20T17:25:59.985Z,24.40
2022-08-20T17:28:34.979Z,24.30
2022-08-20T17:31:03.989Z,24.40
2022-08-20T17:33:36.039Z,24.20
2022-08-20T17:36:12.088Z,24.20
2022-08-20T17:38:48.773Z,24.20
2022-08-20T17:41:24.771Z,24.20
2022-08-20T17:44:00.115Z,24.10
2022-08-20T17:46:31.491Z,24.10
2022-08-20T17:49:03.088Z,24.10
2022-08-20T17:51:51.538Z,23.90
2022-08-20T17:54:27.094Z,23.80
2022-08-20T17:57:01.416Z,23.70
2022-08-20T18:00:00.599Z,23.80
2022-08-20T18:02:22.667Z,23.70
2022-08-20T18:04:52.586Z,23.60
2022-08-20T18:07:27.314Z,23.50
2022-08-20T18:10:03.307Z,23.40
2022-08-20T18:12:38.247Z,23.30
2022-08-20T18:15:13.025Z,23.20
2022-08-20T18:18:17.032Z,23.10
2022-08-20T18:21:14.723Z,23.00
2022-08-20T18:23:48.891Z,22.90
2022-08-20T18:26:26.399Z,22.70
2022-08-20T18:29:00.432Z,22.70
2022-08-20T18:31:33.558Z,22.70
2022-08-20T18:34:13.655Z,22.70
2022-08-20T18:36:42.468Z,22.70
2022-08-20T18:39:26.101Z,22.50
2022-08-20T18:42:01.785Z,22.30
2022-08-20T18:44:39.549Z,22.30
2022-08-20T18:47:21.569Z,22.40
2022-08-20T18:50:06.593Z,22.30
2022-08-20T18:52:49.447Z,22.10
2022-08-20T18:55:32.473Z,22.10
2022-08-20T18:58:06.574Z,21.90
2022-08-20T19:00:42.421Z,21.90
2022-08-20T19:03:21.030Z,21.80
2022-08-20T19:06:25.350Z,21.70
2022-08-20T19:09:07.129Z,21.60
2022-08-20T19:12:33.036Z,21.70
2022-08-20T19:15:09.074Z,21.50
2022-08-20T19:17:52.970Z,21.40
2022-08-20T19:20:25.679Z,21.30
2022-08-20T19:23:02.203Z,21.30
2022-08-20T19:25:36.235Z,21.30
2022-08-20T19:28:18.217Z,21.20
2022-08-20T19:30:47.057Z,21.20
2022-08-20T19:33:15.562Z,21.10
2022-08-20T19:35:47.893Z,21.10
2022-08-20T19:38:17.528Z,21.00
2022-08-20T19:40:46.739Z,20.90
2022-08-20T19:43:22.296Z,20.80
2022-08-20T19:45:54.317Z,20.70
2022-08-20T19:48:40.430Z,20.70
2022-08-20T19:51:15.851Z,20.60
2022-08-20T19:53:47.924Z,20.50
2022-08-20T19:56:19.492Z,20.50
2022-08-20T19:59:02.028Z,20.40
2022-08-20T20:01:30.430Z,20.40
2022-08-20T20:04:02.588Z,20.30
2022-08-20T20:06:36.207Z,20.20
2022-08-20T20:09:08.809Z,20.20
2022-08-20T20:11:42.035Z,20.30
2022-08-20T20:14:14.889Z,20.10
2022-08-20T20:16:44.041Z,20.00
2022-08-20T20:19:30.155Z,19.90
2022-08-20T20:22:16.114Z,19.80
2022-08-20T20:24:57.991Z,19.70
2022-08-20T20:27:28.835Z,19.70
2022-08-20T20:30:02.677Z,19.70
2022-08-20T20:32:33.812Z,19.60
2022-08-20T20:35:06.480Z,19.60
2022-08-20T20:37:50.145Z,19.50
2022-08-20T20:40:26.724Z,19.50
2022-08-20T20:43:03.179Z,19.40
2022-08-20T20:45:37.683Z,19.40
2022-08-20T20:48:20.820Z,19.40
2022-08-20T20:50:51.014Z,19.30
2022-08-20T20:53:49.466Z,19.20
2022-08-20T20:56:36.439Z,19.20
2022-08-20T20:59:07.614Z,19.10
2022-08-20T21:01:48.740Z,19.10
2022-08-20T21:04:23.049Z,19.00
2022-08-20T21:06:53.676Z,19.00
2022-08-20T21:09:23.678Z,18.90
2022-08-20T21:11:52.180Z,18.90
2022-08-20T21:14:20.541Z,18.80
2022-08-20T21:16:50.361Z,18.80
2022-08-20T21:19:19.407Z,18.70
2022-08-20T21:21:47.760Z,18.70
2022-08-20T21:24:16.169Z,18.70
2022-08-20T21:26:45.201Z,18.60
2022-08-20T21:29:17.696Z,18.60
2022-08-20T21:31:47.447Z,18.60
2022-08-20T21:34:17.603Z,18.50
2022-08-20T21:36:46.854Z,18.50
2022-08-20T21:39:15.370Z,18.50
2022-08-20T21:41:45.537Z,18.50
2022-08-20T21:44:21.474Z,18.40
2022-08-20T21:46:50.692Z,18.30
2022-08-20T21:49:21.369Z,18.30
2022-08-20T21:51:51.153Z,18.30
2022-08-20T21:54:19.756Z,18.30
2022-08-20T21:56:53.820Z,18.20
2022-08-20T21:59:24.114Z,18.10
2022-08-20T22:01:53.063Z,18.10
2022-08-20T22:04:23.014Z,18.00
2022-08-20T22:06:51.433Z,18.00
2022-08-20T22:09:20.377Z,18.00
2022-08-20T22:11:56.483Z,18.00
2022-08-20T22:14:30.277Z,18.00
2022-08-20T22:16:58.812Z,17.90
2022-08-20T22:19:28.534Z,17.90
2022-08-20T22:21:58.173Z,17.80
2022-08-20T22:24:29.635Z,17.80
2022-08-20T22:26:58.234Z,17.80
2022-08-20T22:29:26.658Z,17.80
2022-08-20T22:31:55.744Z,17.80
2022-08-20T22:34:24.205Z,17.70
2022-08-20T22:36:55.712Z,17.70
2022-08-20T22:39:24.073Z,17.60
2022-08-20T22:41:53.098Z,17.60
2022-08-20T22:44:21.864Z,17.50
2022-08-20T22:46:55.562Z,17.50
2022-08-20T22:49:28.905Z,17.50
2022-08-20T22:51:59.089Z,17.50
2022-08-20T22:54:27.512Z,17.40
2022-08-20T22:56:56.231Z,17.40
2022-08-20T22:59:25.831Z,17.30
2022-08-20T23:01:54.733Z,17.30
2022-08-20T23:04:29.401Z,17.30
2022-08-20T23:07:00.446Z,17.30
2022-08-20T23:09:30.170Z,17.30
2022-08-20T23:11:58.723Z,17.20
2022-08-20T23:14:27.541Z,17.30
2022-08-20T23:17:02.815Z,17.20
2022-08-20T23:19:31.284Z,17.10
2022-08-20T23:22:00.975Z,17.10
2022-08-20T23:24:29.344Z,17.10
2022-08-20T23:26:58.273Z,17.10
2022-08-20T23:29:27.426Z,17.10
2022-08-20T23:31:57.041Z,17.10
2022-08-20T23:34:26.727Z,17.10
2022-08-20T23:36:56.749Z,17.10
2022-08-20T23:39:27.360Z,17.00
2022-08-20T23:41:55.816Z,17.00
2022-08-20T23:44:26.392Z,17.00
2022-08-20T23:46:57.822Z,17.00
2022-08-20T23:49:26.452Z,16.90
2022-08-20T23:51:54.920Z,16.90
2022-08-20T23:54:23.263Z,16.90
2022-08-20T23:56:53.060Z,16.90
2022-08-20T23:59:25.984Z,16.90
